createdAt,value
2017-10-17T00:01:25.447Z,15.00
2017-10-17T00:03:55.399Z,15.00
2017-10-17T00:06:25.528Z,15.00
2017-10-17T00:08:55.636Z,15.00
2017-10-17T00:11:25.963Z,15.00
2017-10-17T00:13:55.872Z,15.00
2017-10-17T00:16:27.016Z,15.00
2017-10-17T00:18:58.162Z,15.00
2017-10-17T00:21:28.078Z,15.00
2017-10-17T00:23:58.168Z,15.00
2017-10-17T00:26:28.205Z,15.00
2017-10-17T00:28:58.238Z,15.00
2017-10-17T00:31:28.289Z,15.00
2017-10-17T00:33:58.671Z,15.00
2017-10-17T00:36:28.585Z,15.00
2017-10-17T00:38:58.906Z,15.00
2017-10-17T00:41:28.822Z,15.00
2017-10-17T00:44:01.560Z,15.00
2017-10-17T00:46:31.515Z,15.00
2017-10-17T00:49:02.252Z,15.00
2017-10-17T00:51:32.290Z,15.00
2017-10-17T00:54:02.284Z,15.00
2017-10-17T00:56:32.620Z,15.00
2017-10-17T00:59:02.529Z,15.00
2017-10-17T01:01:32.420Z,15.00
2017-10-17T01:04:03.990Z,15.00
2017-10-17T01:06:33.905Z,15.00
2017-10-17T01:09:04.431Z,15.00
2017-10-17T01:11:34.553Z,15.00
2017-10-17T01:14:04.465Z,15.00
2017-10-17T01:16:34.382Z,15.00
2017-10-17T01:19:04.293Z,15.00
2017-10-17T01:21:34.823Z,14.90
2017-10-17T01:24:05.352Z,14.90
2017-10-17T01:26:35.268Z,15.00
2017-10-17T01:29:05.182Z,15.00
2017-10-17T01:31:35.176Z,15.00
2017-10-17T01:34:05.699Z,15.00
2017-10-17T01:36:35.745Z,15.00
2017-10-17T01:39:06.038Z,15.00
2017-10-17T01:41:36.106Z,15.00
2017-10-17T01:44:05.894Z,15.00
2017-10-17T01:46:35.809Z,14.90
2017-10-17T01:49:05.946Z,15.00
2017-10-17T01:51:36.048Z,14.90
2017-10-17T01:54:06.576Z,14.90
2017-10-17T01:56:36.904Z,14.90
2017-10-17T01:59:07.015Z,15.00
2017-10-17T02:01:37.122Z,14.90
2017-10-17T02:04:08.485Z,14.90
2017-10-17T02:06:38.398Z,14.90
2017-10-17T02:09:08.334Z,14.90
2017-10-17T02:11:38.434Z,14.90
2017-10-17T02:14:08.345Z,14.90
2017-10-17T02:16:38.260Z,14.90
2017-10-17T02:19:08.176Z,14.90
2017-10-17T02:21:38.295Z,14.90
2017-10-17T02:24:08.208Z,14.90
2017-10-17T02:26:38.098Z,14.90
2017-10-17T02:29:08.531Z,14.90
2017-10-17T02:31:38.565Z,14.90
2017-10-17T02:34:08.469Z,14.90
2017-10-17T02:36:38.394Z,14.90
2017-10-17T02:39:09.264Z,14.90
2017-10-17T02:41:39.251Z,14.90
2017-10-17T02:44:09.572Z,14.90
2017-10-17T02:46:39.490Z,14.90
2017-10-17T02:49:09.402Z,14.90
2017-10-17T02:51:39.477Z,14.90
2017-10-17T02:54:09.435Z,14.80
2017-10-17T02:56:39.351Z,14.90
2017-10-17T02:59:09.669Z,14.80
2017-10-17T03:01:39.789Z,14.80
2017-10-17T03:04:09.686Z,14.80
2017-10-17T03:06:40.233Z,14.80
2017-10-17T03:09:10.350Z,14.80
2017-10-17T03:11:40.266Z,14.80
2017-10-17T03:14:10.453Z,14.80
2017-10-17T03:16:40.619Z,14.80
2017-10-17T03:19:10.734Z,14.80
2017-10-17T03:21:41.012Z,14.80
2017-10-17T03:24:11.168Z,14.80
2017-10-17T03:26:41.908Z,14.80
2017-10-17T03:29:11.818Z,14.70
2017-10-17T03:31:41.936Z,14.80
2017-10-17T03:34:12.186Z,14.70
2017-10-17T03:36:42.176Z,14.70
2017-10-17T03:39:12.292Z,14.70
2017-10-17T03:41:42.230Z,14.70
2017-10-17T03:44:12.121Z,14.70
2017-10-17T03:46:42.037Z,14.70
2017-10-17T03:49:11.949Z,14.70
2017-10-17T03:51:41.863Z,14.70
2017-10-17T03:54:11.778Z,14.70
2017-10-17T03:56:42.726Z,14.70
2017-10-17T03:59:12.966Z,14.70
2017-10-17T04:01:43.778Z,14.70
2017-10-17T04:04:13.689Z,14.60
2017-10-17T04:06:43.803Z,14.60
2017-10-17T04:09:15.313Z,14.60
2017-10-17T04:11:45.686Z,14.60
2017-10-17T04:14:15.749Z,14.60
2017-10-17T04:16:47.092Z,14.60
2017-10-17T04:19:17.148Z,14.60
2017-10-17T04:21:47.124Z,14.50
2017-10-17T04:24:17.223Z,14.50
2017-10-17T04:26:47.414Z,14.50
2017-10-17T04:29:18.155Z,14.50
2017-10-17T04:31:48.400Z,14.50
2017-10-17T04:34:18.996Z,14.50
2017-10-17T04:36:49.139Z,14.50
2017-10-17T04:39:19.254Z,14.50
2017-10-17T04:41:51.005Z,14.50
2017-10-17T04:44:29.725Z,14.50
2017-10-17T04:46:59.638Z,14.50
2017-10-17T04:49:29.756Z,14.50
2017-10-17T04:51:59.674Z,14.40
2017-10-17T04:54:29.587Z,14.40
2017-10-17T04:56:59.908Z,14.40
2017-10-17T04:59:30.066Z,14.40
2017-10-17T05:02:00.356Z,14.40
2017-10-17T05:04:30.585Z,14.40
2017-10-17T05:07:01.190Z,14.40
2017-10-17T05:09:31.207Z,14.30
2017-10-17T05:12:01.032Z,14.30
2017-10-17T05:14:30.951Z,14.30
2017-10-17T05:17:01.065Z,14.30
2017-10-17T05:19:31.185Z,14.30
2017-10-17T05:22:01.435Z,14.30
2017-10-17T05:24:31.432Z,14.30
2017-10-17T05:27:01.695Z,14.30
2017-10-17T05:29:31.817Z,14.30
2017-10-17T05:32:01.783Z,14.30
2017-10-17T05:34:31.695Z,14.30
2017-10-17T05:37:01.777Z,14.30
2017-10-17T05:39:31.940Z,14.30
2017-10-17T05:42:01.850Z,14.20
2017-10-17T05:44:32.789Z,14.20
2017-10-17T05:47:03.043Z,14.20
2017-10-17T05:49:33.228Z,14.20
2017-10-17T05:52:03.145Z,14.20
2017-10-17T05:54:33.262Z,14.20
2017-10-17T05:57:03.177Z,14.20
2017-10-17T05:59:32.895Z,14.20
2017-10-17T06:02:02.953Z,14.20
2017-10-17T06:04:32.714Z,14.20
2017-10-17T06:07:02.633Z,14.20
2017-10-17T06:09:32.708Z,14.20
2017-10-17T06:12:02.457Z,14.10
2017-10-17T06:14:32.565Z,14.10
2017-10-17T06:17:02.487Z,14.10
2017-10-17T06:19:32.389Z,14.10
2017-10-17T06:22:02.738Z,14.10
2017-10-17T06:24:32.789Z,14.10
2017-10-17T06:27:03.171Z,14.10
2017-10-17T06:29:33.089Z,14.10
2017-10-17T06:32:02.798Z,14.10
2017-10-17T06:34:32.918Z,14.10
2017-10-17T06:37:04.436Z,14.10
2017-10-17T06:39:34.178Z,14.10
2017-10-17T06:42:04.093Z,14.10
2017-10-17T06:44:33.815Z,14.10
2017-10-17T06:47:04.739Z,14.10
2017-10-17T06:49:34.649Z,14.10
2017-10-17T06:52:04.984Z,14.10
2017-10-17T06:54:35.096Z,14.10
2017-10-17T06:57:05.375Z,14.10
2017-10-17T06:59:35.133Z,14.10
2017-10-17T07:02:05.252Z,14.10
2017-10-17T07:04:35.163Z,14.10
2017-10-17T07:07:05.180Z,14.10
2017-10-17T07:09:35.503Z,14.10
2017-10-17T07:12:05.417Z,14.10
2017-10-17T07:14:35.539Z,14.10
2017-10-17T07:17:05.597Z,14.10
2017-10-17T07:19:35.513Z,14.10
2017-10-17T07:22:05.656Z,14.10
2017-10-17T07:24:35.691Z,14.10
2017-10-17T07:27:05.522Z,14.10
2017-10-17T07:29:35.639Z,14.10
2017-10-17T07:32:05.551Z,14.20
2017-10-17T07:34:35.470Z,14.20
2017-10-17T07:37:05.610Z,14.20
2017-10-17T07:39:35.686Z,14.20
2017-10-17T07:42:05.823Z,14.20
2017-10-17T07:44:35.891Z,14.20
2017-10-17T07:47:06.308Z,14.20
2017-10-17T07:49:36.186Z,14.20
2017-10-17T07:52:06.683Z,14.20
2017-10-17T07:54:36.622Z,14.20
2017-10-17T07:57:06.740Z,14.20
2017-10-17T07:59:38.302Z,14.20
2017-10-17T08:02:08.415Z,14.20
2017-10-17T08:04:39.353Z,14.20
2017-10-17T08:07:09.628Z,14.20
2017-10-17T08:09:39.695Z,14.20
2017-10-17T08:12:09.507Z,14.20
2017-10-17T08:14:39.627Z,14.20
2017-10-17T08:17:09.700Z,14.20
2017-10-17T08:19:39.660Z,14.30
2017-10-17T08:22:09.982Z,14.30
2017-10-17T08:24:40.100Z,14.30
2017-10-17T08:27:10.016Z,14.30
2017-10-17T08:29:40.548Z,14.30
2017-10-17T08:32:10.648Z,14.30
2017-10-17T08:34:40.576Z,14.30
2017-10-17T08:37:10.419Z,14.30
2017-10-17T08:39:40.516Z,14.30
2017-10-17T08:42:10.738Z,14.30
2017-10-17T08:44:40.641Z,14.30
2017-10-17T08:47:10.761Z,14.30
2017-10-17T08:49:41.497Z,14.30
2017-10-17T08:52:11.508Z,14.30
2017-10-17T08:54:41.327Z,14.30
2017-10-17T08:57:11.397Z,14.30
2017-10-17T08:59:41.363Z,14.30
2017-10-17T09:02:11.476Z,14.30
2017-10-17T09:04:41.346Z,14.30
2017-10-17T09:07:11.291Z,14.30
2017-10-17T09:09:41.219Z,14.30
2017-10-17T09:12:11.339Z,14.30
2017-10-17T09:14:41.661Z,14.40
2017-10-17T09:17:11.537Z,14.40
2017-10-17T09:19:41.476Z,14.40
2017-10-17T09:22:11.607Z,14.40
2017-10-17T09:24:42.288Z,14.40
2017-10-17T09:27:12.251Z,14.40
2017-10-17T09:29:42.267Z,14.40
2017-10-17T09:32:12.085Z,14.40
2017-10-17T09:34:42.205Z,14.40
2017-10-17T09:37:12.323Z,14.40
2017-10-17T09:39:42.863Z,14.40
2017-10-17T09:42:12.981Z,14.40
2017-10-17T09:44:42.988Z,14.40
2017-10-17T09:47:13.209Z,14.50
2017-10-17T09:49:43.851Z,14.50
2017-10-17T09:52:13.960Z,14.50
2017-10-17T09:54:43.955Z,14.50
2017-10-17T09:57:13.790Z,14.50
2017-10-17T09:59:44.518Z,14.50
2017-10-17T10:02:14.796Z,14.50
2017-10-17T10:04:44.764Z,14.60
2017-10-17T10:07:15.087Z,14.60
2017-10-17T10:09:44.991Z,14.60
2017-10-17T10:12:16.231Z,14.60
2017-10-17T10:14:46.058Z,14.60
2017-10-17T10:17:15.984Z,14.60
2017-10-17T10:19:46.295Z,14.60
2017-10-17T10:22:16.619Z,14.60
2017-10-17T10:24:46.533Z,14.50
2017-10-17T10:27:16.793Z,14.60
2017-10-17T10:29:46.742Z,14.60
2017-10-17T10:32:16.686Z,14.60
2017-10-17T10:34:47.012Z,14.60
2017-10-17T10:37:17.643Z,14.60
2017-10-17T10:39:47.351Z,14.60
2017-10-17T10:42:17.959Z,14.70
2017-10-17T10:44:47.792Z,14.70
2017-10-17T10:47:17.706Z,14.80
2017-10-17T10:49:48.204Z,14.80
2017-10-17T10:52:18.143Z,14.80
2017-10-17T10:54:48.269Z,14.90
2017-10-17T10:57:18.380Z,14.90
2017-10-17T10:59:48.097Z,14.90
2017-10-17T11:02:18.205Z,15.00
2017-10-17T11:04:48.137Z,15.00
2017-10-17T11:07:18.249Z,15.00
2017-10-17T11:09:50.211Z,15.10
2017-10-17T11:12:20.478Z,15.10
2017-10-17T11:14:50.452Z,15.10
2017-10-17T11:17:20.531Z,15.20
2017-10-17T11:19:50.600Z,15.30
2017-10-17T11:22:20.810Z,15.50
2017-10-17T11:24:50.838Z,15.60
2017-10-17T11:27:21.626Z,15.60
2017-10-17T11:29:51.988Z,15.60
2017-10-17T11:32:22.552Z,15.60
2017-10-17T11:34:53.047Z,15.60
2017-10-17T11:37:23.054Z,15.60
2017-10-17T11:39:53.287Z,15.60
2017-10-17T11:43:36.607Z,15.50
2017-10-17T11:46:06.842Z,15.60
2017-10-17T11:48:36.967Z,15.60
2017-10-17T11:51:06.869Z,15.60
2017-10-17T11:53:36.783Z,15.60
2017-10-17T11:56:06.704Z,15.60
2017-10-17T11:58:36.818Z,15.60
2017-10-17T12:01:06.936Z,15.60
2017-10-17T12:03:37.876Z,15.60
2017-10-17T12:06:08.409Z,15.60
2017-10-17T12:08:38.516Z,15.60
2017-10-17T12:11:08.554Z,15.70
2017-10-17T12:13:38.558Z,15.60
2017-10-17T12:16:08.791Z,15.60
2017-10-17T12:18:38.999Z,15.60
2017-10-17T12:21:09.733Z,15.60
2017-10-17T12:23:40.676Z,15.60
2017-10-17T12:26:10.773Z,15.60
2017-10-17T12:28:41.156Z,15.60
2017-10-17T12:31:12.051Z,15.70
2017-10-17T12:33:42.786Z,15.70
2017-10-17T12:36:15.725Z,15.60
2017-10-17T12:38:46.309Z,15.60
2017-10-17T12:41:17.034Z,15.60
2017-10-17T12:43:47.155Z,15.60
2017-10-17T12:46:17.161Z,15.60
2017-10-17T12:48:47.391Z,15.70
2017-10-17T12:51:17.589Z,15.70
2017-10-17T12:53:47.567Z,15.60
2017-10-17T12:56:17.682Z,15.60
2017-10-17T12:58:47.870Z,15.60
2017-10-17T13:01:18.610Z,15.60
2017-10-17T13:03:48.722Z,15.60
2017-10-17T13:06:19.252Z,15.60
2017-10-17T13:08:49.319Z,15.60
2017-10-17T13:11:19.489Z,15.60
2017-10-17T13:13:50.428Z,15.60
2017-10-17T13:16:21.536Z,15.50
2017-10-17T13:18:51.901Z,15.50
2017-10-17T13:21:22.793Z,15.50
2017-10-17T13:23:53.003Z,15.50
2017-10-17T13:26:23.478Z,15.40
2017-10-17T13:28:53.742Z,15.40
2017-10-17T13:31:24.685Z,15.40
2017-10-17T13:33:55.766Z,15.40
2017-10-17T13:36:26.866Z,15.40
2017-10-17T13:38:57.106Z,15.40
2017-10-17T13:41:27.421Z,15.40
2017-10-17T13:43:57.444Z,15.40
2017-10-17T13:46:28.221Z,15.40
2017-10-17T13:48:59.787Z,15.40
2017-10-17T13:51:29.895Z,15.40
2017-10-17T13:54:00.219Z,15.40
2017-10-17T13:56:30.339Z,15.40
2017-10-17T13:59:00.391Z,15.40
2017-10-17T14:01:30.368Z,15.40
2017-10-17T14:04:00.965Z,15.40
2017-10-17T14:06:31.208Z,15.40
2017-10-17T14:09:01.279Z,15.40
2017-10-17T14:11:31.663Z,15.30
2017-10-17T14:14:01.917Z,15.30
2017-10-17T14:16:32.306Z,15.30
2017-10-17T14:19:02.432Z,15.30
2017-10-17T14:21:32.556Z,15.30
2017-10-17T14:24:02.841Z,15.20
2017-10-17T14:26:32.930Z,15.30
2017-10-17T14:29:02.918Z,15.20
2017-10-17T14:31:33.230Z,15.20
2017-10-17T14:34:03.356Z,15.20
2017-10-17T14:36:33.472Z,15.20
2017-10-17T14:39:03.797Z,15.20
2017-10-17T14:41:33.887Z,15.20
2017-10-17T14:44:04.808Z,15.20
2017-10-17T14:46:35.587Z,15.20
2017-10-17T14:49:05.908Z,15.10
2017-10-17T14:51:36.039Z,15.10
2017-10-17T14:54:07.086Z,15.10
2017-10-17T14:56:37.189Z,15.10
2017-10-17T14:59:08.134Z,15.10
2017-10-17T15:01:39.480Z,15.10
2017-10-17T15:04:10.753Z,15.10
2017-10-17T15:06:40.965Z,15.10
2017-10-17T15:09:11.195Z,15.00
2017-10-17T15:11:41.589Z,15.00
2017-10-17T15:14:11.865Z,15.00
2017-10-17T15:16:42.039Z,15.10
2017-10-17T15:19:12.527Z,15.00
2017-10-17T15:21:42.638Z,15.00
2017-10-17T15:24:12.801Z,15.00
2017-10-17T15:26:42.864Z,15.00
2017-10-17T15:29:13.784Z,15.00
2017-10-17T15:31:43.768Z,15.00
2017-10-17T15:34:14.019Z,15.00
2017-10-17T15:36:44.018Z,15.00
2017-10-17T15:39:14.128Z,14.90
2017-10-17T15:41:44.400Z,14.90
2017-10-17T15:44:14.376Z,14.90
2017-10-17T15:46:44.690Z,14.90
2017-10-17T15:49:15.186Z,14.90
2017-10-17T15:51:45.547Z,14.90
2017-10-17T15:54:16.074Z,14.90
2017-10-17T15:56:47.193Z,14.90
2017-10-17T15:59:17.190Z,14.80
2017-10-17T16:01:47.367Z,14.90
2017-10-17T16:04:18.389Z,14.80
2017-10-17T16:06:48.571Z,14.80
2017-10-17T16:09:19.780Z,14.70
2017-10-17T16:11:49.773Z,14.70
2017-10-17T16:14:20.919Z,14.70
2017-10-17T16:16:51.180Z,14.70
2017-10-17T16:19:21.525Z,14.70
2017-10-17T16:21:51.891Z,14.70
2017-10-17T16:24:22.283Z,14.70
2017-10-17T16:26:52.150Z,14.70
2017-10-17T16:29:24.293Z,14.70
2017-10-17T16:31:54.693Z,14.60
2017-10-17T16:34:25.974Z,14.60
2017-10-17T16:36:56.303Z,14.60
2017-10-17T16:39:26.966Z,14.60
2017-10-17T16:41:57.081Z,14.60
2017-10-17T16:44:27.312Z,14.60
2017-10-17T16:46:58.798Z,14.60
2017-10-17T16:49:29.554Z,14.60
2017-10-17T16:51:59.941Z,14.50
2017-10-17T16:54:31.011Z,14.50
2017-10-17T16:57:01.233Z,14.50
2017-10-17T16:59:32.275Z,14.50
2017-10-17T17:02:02.599Z,14.50
2017-10-17T17:04:33.744Z,14.50
2017-10-17T17:07:04.113Z,14.50
2017-10-17T17:09:35.733Z,14.50
2017-10-17T17:12:06.150Z,14.50
2017-10-17T17:14:36.207Z,14.40
2017-10-17T17:17:06.280Z,14.40
2017-10-17T17:19:36.721Z,14.40
2017-10-17T17:22:06.808Z,14.40
2017-10-17T17:24:36.846Z,14.40
2017-10-17T17:27:06.931Z,14.40
2017-10-17T17:29:37.019Z,14.40
2017-10-17T17:32:07.154Z,14.40
2017-10-17T17:34:37.268Z,14.40
2017-10-17T17:37:08.166Z,14.40
2017-10-17T17:39:38.327Z,14.30
2017-10-17T17:42:08.667Z,14.30
2017-10-17T17:44:39.428Z,14.30
2017-10-17T17:47:10.377Z,14.30
2017-10-17T17:49:40.410Z,14.30
2017-10-17T17:52:10.606Z,14.30
2017-10-17T17:54:40.502Z,14.30
2017-10-17T17:57:10.570Z,14.30
2017-10-17T17:59:40.761Z,14.30
2017-10-17T18:02:10.879Z,14.20
2017-10-17T18:04:41.133Z,14.20
2017-10-17T18:07:11.499Z,14.20
2017-10-17T18:09:41.650Z,14.20
2017-10-17T18:12:12.574Z,14.20
2017-10-17T18:14:42.915Z,14.20
2017-10-17T18:17:13.447Z,14.20
2017-10-17T18:19:43.632Z,14.20
2017-10-17T18:22:14.137Z,14.20
2017-10-17T18:24:44.602Z,14.20
2017-10-17T18:27:16.094Z,14.10
2017-10-17T18:29:46.428Z,14.10
2017-10-17T18:32:17.021Z,14.10
2017-10-17T18:34:47.959Z,14.10
2017-10-17T18:37:18.489Z,14.10
2017-10-17T18:39:48.812Z,14.10
2017-10-17T18:42:19.098Z,14.10
2017-10-17T18:44:50.167Z,14.10
2017-10-17T18:47:20.612Z,14.10
2017-10-17T18:49:51.104Z,14.10
2017-10-17T18:52:21.820Z,14.00
2017-10-17T18:54:52.457Z,14.00
2017-10-17T18:57:22.554Z,14.00
2017-10-17T18:59:53.265Z,14.00
2017-10-17T19:02:23.931Z,14.00
2017-10-17T19:04:53.831Z,14.00
2017-10-17T19:07:24.057Z,14.00
2017-10-17T19:09:54.752Z,14.00
2017-10-17T19:12:25.077Z,14.00
2017-10-17T19:14:55.408Z,14.00
2017-10-17T19:17:25.892Z,13.90
2017-10-17T19:19:56.663Z,14.00
2017-10-17T19:22:26.998Z,14.00
2017-10-17T19:24:57.548Z,13.90
2017-10-17T19:27:28.036Z,13.90
2017-10-17T19:29:58.605Z,13.90
2017-10-17T19:32:28.637Z,13.90
2017-10-17T19:34:58.767Z,13.80
2017-10-17T19:37:29.139Z,13.80
2017-10-17T19:40:00.227Z,13.80
2017-10-17T19:42:30.572Z,13.80
2017-10-17T19:45:00.891Z,13.90
2017-10-17T19:47:30.834Z,13.80
2017-10-17T19:50:00.808Z,13.80
2017-10-17T19:52:31.109Z,13.80
2017-10-17T19:55:01.148Z,13.80
2017-10-17T19:57:31.302Z,13.80
2017-10-17T20:00:02.230Z,13.80
2017-10-17T20:02:32.776Z,13.70
2017-10-17T20:05:03.048Z,13.70
2017-10-17T20:07:33.000Z,13.70
2017-10-17T20:10:03.148Z,13.70
2017-10-17T20:12:33.526Z,13.70
2017-10-17T20:15:03.693Z,13.70
2017-10-17T20:17:34.386Z,13.70
2017-10-17T20:20:04.575Z,13.70
2017-10-17T20:22:34.591Z,13.70
2017-10-17T20:25:05.078Z,13.70
2017-10-17T20:27:35.348Z,13.70
2017-10-17T20:30:05.518Z,13.60
2017-10-17T20:32:35.843Z,13.60
2017-10-17T20:35:06.094Z,13.60
2017-10-17T20:37:36.901Z,13.60
2017-10-17T20:40:06.885Z,13.60
2017-10-17T20:42:37.343Z,13.60
2017-10-17T20:45:07.674Z,13.60
2017-10-17T20:47:37.846Z,13.60
2017-10-17T20:50:07.895Z,13.60
2017-10-17T20:52:38.066Z,13.60
2017-10-17T20:55:08.751Z,13.50
2017-10-17T20:57:38.902Z,13.50
2017-10-17T21:00:09.202Z,13.50
2017-10-17T21:02:39.524Z,13.50
2017-10-17T21:05:09.805Z,13.50
2017-10-17T21:07:40.320Z,13.50
2017-10-17T21:10:10.248Z,13.50
2017-10-17T21:12:40.410Z,13.50
2017-10-17T21:15:10.937Z,13.50
2017-10-17T21:17:41.673Z,13.50
2017-10-17T21:20:12.201Z,13.40
2017-10-17T21:22:42.113Z,13.40
2017-10-17T21:25:12.176Z,13.40
2017-10-17T21:27:42.147Z,13.40
2017-10-17T21:30:12.188Z,13.40
2017-10-17T21:32:42.352Z,13.40
2017-10-17T21:35:12.097Z,13.40
2017-10-17T21:37:42.341Z,13.40
2017-10-17T21:40:13.161Z,13.40
2017-10-17T21:42:44.052Z,13.40
2017-10-17T21:45:14.992Z,13.30
2017-10-17T21:47:45.014Z,13.30
2017-10-17T21:50:15.452Z,13.30
2017-10-17T21:52:45.795Z,13.30
2017-10-17T21:55:15.927Z,13.30
2017-10-17T21:57:46.658Z,13.30
2017-10-17T22:00:16.850Z,13.30
2017-10-17T22:02:50.754Z,13.30
2017-10-17T22:05:20.892Z,13.30
2017-10-17T22:07:50.943Z,13.30
2017-10-17T22:10:21.135Z,13.30
2017-10-17T22:12:51.049Z,13.20
2017-10-17T22:15:21.374Z,13.20
2017-10-17T22:17:52.651Z,13.20
2017-10-17T22:20:22.992Z,13.20
2017-10-17T22:22:53.231Z,13.20
2017-10-17T22:25:23.229Z,13.20
2017-10-17T22:27:53.405Z,13.20
2017-10-17T22:30:24.140Z,13.20
2017-10-17T22:32:55.156Z,13.10
2017-10-17T22:35:25.049Z,13.10
2017-10-17T22:37:55.728Z,13.10
2017-10-17T22:40:25.786Z,13.10
2017-10-17T22:42:56.130Z,13.10
2017-10-17T22:45:26.900Z,13.10
2017-10-17T22:47:57.015Z,13.10
2017-10-17T22:50:27.143Z,13.10
2017-10-17T22:52:57.201Z,13.10
2017-10-17T22:55:27.578Z,13.10
2017-10-17T22:57:57.605Z,13.00
2017-10-17T23:00:30.028Z,13.00
2017-10-17T23:03:00.188Z,13.00
2017-10-17T23:05:30.716Z,13.00
2017-10-17T23:08:00.930Z,13.00
2017-10-17T23:10:31.914Z,13.00
2017-10-17T23:13:02.013Z,13.00
2017-10-17T23:15:32.627Z,13.00
2017-10-17T23:21:18.944Z,13.00
2017-10-17T23:23:48.859Z,12.90
2017-10-17T23:26:18.987Z,12.90
2017-10-17T23:28:49.096Z,12.90
2017-10-17T23:31:19.011Z,12.90
2017-10-17T23:33:49.734Z,12.90
2017-10-17T23:36:19.659Z,12.90
2017-10-17T23:38:50.953Z,12.90
2017-10-17T23:41:20.908Z,12.90
2017-10-17T23:43:50.841Z,12.90
2017-10-17T23:46:20.734Z,12.90
2017-10-17T23:48:52.898Z,12.80
2017-10-17T23:51:22.815Z,12.80
2017-10-17T23:53:53.342Z,12.80
2017-10-17T23:56:23.595Z,12.80
2017-10-17T23:58:53.990Z,12.80
